Norwegian Breakaway — C6ZJ3 — position and weather

sailwx.info

Track history (hours):
 
Tides and Currents Weather Stations Pressure Air Temp Water Temp Dewpoint Dewpoint Depression Visibility Wind Speed Wind Dir Waves Ship Positions

Norwegian Breakaway

Last reported at 2018-Feb-19 03:00 UTC. Time now 2018-Feb-19 10:11 UTC.
Position N 29°24' W 079°24'.

Length 325 m; draft 8.6 m.

Type: Ship. MMSI: 311050800.

Wind from 130 at 20 knots

Barometer 1025.8 mb
Air temperature 23.0 ° C
Visibility: greater than 10.8 NM
Water temperature 23.0 ° C

Date/timePositionNaut miles runAvg speedWind from/ knotsBaromVisibWave heightAir tempDewpointWater temp
2018-Feb-19 03:00N 29°24' W 079°24'11813.1 130 / 201025.810.8 23.0 23.0
2018-Feb-18 18:00N 31°12' W 078°30'11414.2 320 / 121024.510.8 25.0 25.0
2018-Feb-18 10:00N 32°54' W 077°30'13617.0 230 / 331020.110.8 22.0 22.0
2018-Feb-18 02:00N 34°36' W 075°42'5313.3 250 / 251018.010.8 22.0 12.0
2018-Feb-17 22:00N 35°12' W 074°54'17714.8 170 / 321019.7 5.4 19.0 24.0
2018-Feb-17 10:00N 38°06' W 074°12'8416.1 020 / 191026.810.8 5.0 8.0
2018-Feb-17 04:46N 39°29' W 073°54'916.2
2018-Feb-17 04:14N 39°37' W 073°52'715.8
2018-Feb-17 03:49N 39°44' W 073°51'815.8
2018-Feb-17 03:20N 39°52' W 073°51'3012.6
2018-Feb-17 00:55N 40°22' W 073°49'5 9.5
2018-Feb-17 00:27N 40°26' W 073°50'4 9.7
2018-Feb-17 00:00N 40°29' W 073°54'712.9
2018-Feb-16 23:30N 40°32' W 074°01'815.7
2018-Feb-16 23:00N 40°40' W 074°03'612.2
2018-Feb-16 22:30N 40°46' W 074°00'0 0.8
2018-Feb-16 21:59N 40°46' W 073°60'0 0.0
2018-Feb-16 21:26N 40°46' W 073°60'0 0.0
2018-Feb-16 20:56N 40°46' W 073°60'0 0.0
2018-Feb-16 20:29N 40°46' W 073°60'0 0.0
2018-Feb-16 19:59N 40°46' W 073°60'0 0.0
2018-Feb-16 19:29N 40°46' W 073°60'0 0.0
2018-Feb-16 18:59N 40°46' W 073°60'0 0.0
2018-Feb-16 18:29N 40°46' W 073°60'0 0.0
2018-Feb-16 17:59N 40°46' W 073°60'0 0.0
2018-Feb-16 17:29N 40°46' W 073°60'0 0.0
2018-Feb-16 16:59N 40°46' W 073°60'0 0.0
2018-Feb-16 16:23N 40°46' W 073°60'0 0.0
2018-Feb-16 15:59N 40°46' W 073°60'0 0.0
2018-Feb-16 15:29N 40°46' W 073°60'0 0.0
2018-Feb-16 14:59N 40°46' W 073°60'0 0.0
2018-Feb-16 14:29N 40°46' W 073°60'0 0.0
2018-Feb-16 13:59N 40°46' W 073°60'0 0.0
2018-Feb-16 13:29N 40°46' W 073°60'0 0.0
2018-Feb-16 12:59N 40°46' W 073°60'0 0.0
2018-Feb-16 12:29N 40°46' W 073°60'0 0.0
2018-Feb-16 12:00N 40°46' W 073°60'0 0.5
2018-Feb-16 11:30N 40°46' W 074°00'4 7.2
2018-Feb-16 11:00N 40°43' W 074°01'713.4
2018-Feb-16 10:31N 40°36' W 074°03'815.9
2018-Feb-16 10:00N 40°30' W 073°56'5 9.6
2018-Feb-16 09:30N 40°28' W 073°50'3 6.4
2018-Feb-16 08:57N 40°25' W 073°47'3 7.4
2018-Feb-16 08:30N 40°22' W 073°47'5 9.1
2018-Feb-16 07:58N 40°17' W 073°46'18214.0
2018-Feb-15 19:00N 37°30' W 072°12'78 8.7 250 / 361014.210.8 15.0 20.0
2018-Feb-15 10:00N 38°24' W 071°00'31044.3 250 / 231022.710.8 20.0 19.0
2018-Feb-15 03:00N 33°18' W 070°00'9719.3 050 / 41027.310.8 19.0 20.0
2018-Feb-14 22:00N 31°48' W 069°18'23119.3 010 / 91026.610.8 21.0 24.0
2018-Feb-14 10:00N 28°12' W 067°42'8421.1 080 / 101028.810.8 22.0 24.0
2018-Feb-14 06:00N 26°54' W 067°06'6621.9 070 / 231029.2 5.4 22.0 23.0
2018-Feb-14 03:00N 25°54' W 066°36'10320.7 050 / 281029.310.8 24.0 25.0
2018-Feb-13 22:00N 24°18' W 065°54'20518.6 070 / 351026.510.8 24.0 25.0
2018-Feb-13 11:00N 21°06' W 064°36'17718.4 090 / 501023.010.8 24.0 26.0
2018-Feb-13 01:24N 18°22' W 063°27'1331.1
2018-Feb-13 01:00N 18°12' W 063°18'5108.5 090 / 451020.510.8 26.0 26.0
2018-Feb-13 00:57N 18°14' W 063°23'919.5
2018-Feb-13 00:30N 18°06' W 063°20'1019.4
2018-Feb-12 23:59N 17°57' W 063°15'1219.4
2018-Feb-12 23:22N 17°46' W 063°10'818.9
2018-Feb-12 22:57N 17°38' W 063°08'918.6
2018-Feb-12 22:28N 17°30' W 063°05'919.9
2018-Feb-12 22:00N 17°23' W 062°58'20 1.7
2018-Feb-12 09:51N 17°09' W 062°43'614.6
2018-Feb-12 09:28N 17°04' W 062°42'715.3
2018-Feb-12 08:59N 16°57' W 062°39'815.7
2018-Feb-12 08:29N 16°50' W 062°36'815.9
2018-Feb-12 08:00N 16°43' W 062°33'815.6
2018-Feb-12 07:30N 16°35' W 062°29'815.8
2018-Feb-12 07:01N 16°28' W 062°26'815.9
2018-Feb-12 06:30N 16°21' W 062°23'916.4
2018-Feb-12 05:57N 16°13' W 062°19'2223.2
2018-Feb-12 05:00N 15°54' W 062°06'8115.6 070 / 451018.0 5.4 25.0 27.0
2018-Feb-11 23:47N 14°41' W 061°28'718.8
2018-Feb-11 23:25N 14°35' W 061°25'2419.8
2018-Feb-11 22:13N 14°15' W 061°12'919.4
2018-Feb-11 21:44N 14°08' W 061°06'40 2.4
2018-Feb-11 05:00N 13°48' W 061°42'48 8.3 090 / 301016.3 5.4 25.8 27.0
2018-Feb-10 23:09N 14°30' W 061°17'1 8.9
2018-Feb-10 22:59N 14°31' W 061°16'13 3.4
2018-Feb-10 19:15N 14°36' W 061°04'0 0.0
2018-Feb-10 19:00N 14°36' W 061°04'0 0.0
2018-Feb-10 18:26N 14°36' W 061°04'0 0.0
2018-Feb-10 17:44N 14°36' W 061°04'0 0.0
2018-Feb-10 17:14N 14°36' W 061°04'0 0.0
2018-Feb-10 16:50N 14°36' W 061°04'0 0.0
2018-Feb-10 16:17N 14°36' W 061°04'0 0.0
2018-Feb-10 15:14N 14°36' W 061°04'0 0.0
2018-Feb-10 14:56N 14°36' W 061°04'0 0.0
2018-Feb-10 14:29N 14°36' W 061°04'0 0.0
2018-Feb-10 13:59N 14°36' W 061°04'0 0.0
2018-Feb-10 13:20N 14°36' W 061°04'0 0.0
2018-Feb-10 12:05N 14°36' W 061°04'0 0.0
2018-Feb-10 11:53N 14°36' W 061°04'0 0.2
2018-Feb-10 11:28N 14°36' W 061°04'2 4.0
2018-Feb-10 11:00N 14°35' W 061°06'5 9.8
2018-Feb-10 10:28N 14°34' W 061°11'612.1
2018-Feb-10 09:59N 14°32' W 061°17'1514.9
2018-Feb-10 09:00N 14°24' W 061°30'4511.1 090 / 301015.427.0 24.0 27.0
2018-Feb-10 05:00N 14°06' W 062°12'3712.3 090 / 251016.0 5.4 25.0 26.9
2018-Feb-10 02:00N 13°54' W 062°48'3210.5 090 / 251016.910.8 26.0 27.0
2018-Feb-09 23:00N 13°42' W 063°18'2412.0 090 / 201015.210.8 26.0 27.0
2018-Feb-09 21:00N 13°36' W 063°42'11911.9 080 / 211014.110.8 27.0 27.0
2018-Feb-09 11:00N 12°54' W 065°36'6312.7 090 / 231014.810.8 26.0 27.0
2018-Feb-09 06:00N 12°30' W 066°36'   060 / 241013.9 5.4 25.0 26.0
Track history (hours):
 
Tides and Currents Weather Stations Pressure Air Temp Water Temp Dewpoint Dewpoint Depression Visibility Wind Speed Wind Dir Waves Ship Positions

Norwegian Breakaway

Last reported at 2018-Feb-19 03:00 UTC. Time now 2018-Feb-19 10:11 UTC.
Position N 29°24' W 079°24'.

Length 325 m; draft 8.6 m.

Type: Ship. MMSI: 311050800.

Wind from 130 at 20 knots

Barometer 1025.8 mb
Air temperature 23.0 ° C
Visibility: greater than 10.8 NM
Water temperature 23.0 ° C

Date/timePositionNaut miles runAvg speedWind from/ knotsBaromVisibWave heightAir tempDewpointWater temp
2018-Feb-19 03:00N 29°24' W 079°24'11813.1 130 / 201025.810.8 23.0 23.0
2018-Feb-18 18:00N 31°12' W 078°30'11414.2 320 / 121024.510.8 25.0 25.0
2018-Feb-18 10:00N 32°54' W 077°30'13617.0 230 / 331020.110.8 22.0 22.0
2018-Feb-18 02:00N 34°36' W 075°42'5313.3 250 / 251018.010.8 22.0 12.0
2018-Feb-17 22:00N 35°12' W 074°54'17714.8 170 / 321019.7 5.4 19.0 24.0
2018-Feb-17 10:00N 38°06' W 074°12'8416.1 020 / 191026.810.8 5.0 8.0
2018-Feb-17 04:46N 39°29' W 073°54'916.2
2018-Feb-17 04:14N 39°37' W 073°52'715.8
2018-Feb-17 03:49N 39°44' W 073°51'815.8
2018-Feb-17 03:20N 39°52' W 073°51'3012.6
2018-Feb-17 00:55N 40°22' W 073°49'5 9.5
2018-Feb-17 00:27N 40°26' W 073°50'4 9.7
2018-Feb-17 00:00N 40°29' W 073°54'712.9
2018-Feb-16 23:30N 40°32' W 074°01'815.7
2018-Feb-16 23:00N 40°40' W 074°03'612.2
2018-Feb-16 22:30N 40°46' W 074°00'0 0.8
2018-Feb-16 21:59N 40°46' W 073°60'0 0.0
2018-Feb-16 21:26N 40°46' W 073°60'0 0.0
2018-Feb-16 20:56N 40°46' W 073°60'0 0.0
2018-Feb-16 20:29N 40°46' W 073°60'0 0.0
2018-Feb-16 19:59N 40°46' W 073°60'0 0.0
2018-Feb-16 19:29N 40°46' W 073°60'0 0.0
2018-Feb-16 18:59N 40°46' W 073°60'0 0.0
2018-Feb-16 18:29N 40°46' W 073°60'0 0.0
2018-Feb-16 17:59N 40°46' W 073°60'0 0.0
2018-Feb-16 17:29N 40°46' W 073°60'0 0.0
2018-Feb-16 16:59N 40°46' W 073°60'0 0.0
2018-Feb-16 16:23N 40°46' W 073°60'0 0.0
2018-Feb-16 15:59N 40°46' W 073°60'0 0.0
2018-Feb-16 15:29N 40°46' W 073°60'0 0.0
2018-Feb-16 14:59N 40°46' W 073°60'0 0.0
2018-Feb-16 14:29N 40°46' W 073°60'0 0.0
2018-Feb-16 13:59N 40°46' W 073°60'0 0.0
2018-Feb-16 13:29N 40°46' W 073°60'0 0.0
2018-Feb-16 12:59N 40°46' W 073°60'0 0.0
2018-Feb-16 12:29N 40°46' W 073°60'0 0.0
2018-Feb-16 12:00N 40°46' W 073°60'0 0.5
2018-Feb-16 11:30N 40°46' W 074°00'4 7.2
2018-Feb-16 11:00N 40°43' W 074°01'713.4
2018-Feb-16 10:31N 40°36' W 074°03'815.9
2018-Feb-16 10:00N 40°30' W 073°56'5 9.6
2018-Feb-16 09:30N 40°28' W 073°50'3 6.4
2018-Feb-16 08:57N 40°25' W 073°47'3 7.4
2018-Feb-16 08:30N 40°22' W 073°47'5 9.1
2018-Feb-16 07:58N 40°17' W 073°46'18214.0
2018-Feb-15 19:00N 37°30' W 072°12'78 8.7 250 / 361014.210.8 15.0 20.0
2018-Feb-15 10:00N 38°24' W 071°00'31044.3 250 / 231022.710.8 20.0 19.0
2018-Feb-15 03:00N 33°18' W 070°00'9719.3 050 / 41027.310.8 19.0 20.0
2018-Feb-14 22:00N 31°48' W 069°18'23119.3 010 / 91026.610.8 21.0 24.0
2018-Feb-14 10:00N 28°12' W 067°42'8421.1 080 / 101028.810.8 22.0 24.0
2018-Feb-14 06:00N 26°54' W 067°06'6621.9 070 / 231029.2 5.4 22.0 23.0
2018-Feb-14 03:00N 25°54' W 066°36'10320.7 050 / 281029.310.8 24.0 25.0
2018-Feb-13 22:00N 24°18' W 065°54'20518.6 070 / 351026.510.8 24.0 25.0
2018-Feb-13 11:00N 21°06' W 064°36'17718.4 090 / 501023.010.8 24.0 26.0
2018-Feb-13 01:24N 18°22' W 063°27'1331.1
2018-Feb-13 01:00N 18°12' W 063°18'5108.5 090 / 451020.510.8 26.0 26.0
2018-Feb-13 00:57N 18°14' W 063°23'919.5
2018-Feb-13 00:30N 18°06' W 063°20'1019.4
2018-Feb-12 23:59N 17°57' W 063°15'1219.4
2018-Feb-12 23:22N 17°46' W 063°10'818.9
2018-Feb-12 22:57N 17°38' W 063°08'918.6
2018-Feb-12 22:28N 17°30' W 063°05'919.9
2018-Feb-12 22:00N 17°23' W 062°58'20 1.7
2018-Feb-12 09:51N 17°09' W 062°43'614.6
2018-Feb-12 09:28N 17°04' W 062°42'715.3
2018-Feb-12 08:59N 16°57' W 062°39'815.7
2018-Feb-12 08:29N 16°50' W 062°36'815.9
2018-Feb-12 08:00N 16°43' W 062°33'815.6
2018-Feb-12 07:30N 16°35' W 062°29'815.8
2018-Feb-12 07:01N 16°28' W 062°26'815.9
2018-Feb-12 06:30N 16°21' W 062°23'916.4
2018-Feb-12 05:57N 16°13' W 062°19'2223.2
2018-Feb-12 05:00N 15°54' W 062°06'8115.6 070 / 451018.0 5.4 25.0 27.0
2018-Feb-11 23:47N 14°41' W 061°28'718.8
2018-Feb-11 23:25N 14°35' W 061°25'2419.8
2018-Feb-11 22:13N 14°15' W 061°12'919.4
2018-Feb-11 21:44N 14°08' W 061°06'40 2.4
2018-Feb-11 05:00N 13°48' W 061°42'48 8.3 090 / 301016.3 5.4 25.8 27.0
2018-Feb-10 23:09N 14°30' W 061°17'1 8.9
2018-Feb-10 22:59N 14°31' W 061°16'13 3.4
2018-Feb-10 19:15N 14°36' W 061°04'0 0.0
2018-Feb-10 19:00N 14°36' W 061°04'0 0.0
2018-Feb-10 18:26N 14°36' W 061°04'0 0.0
2018-Feb-10 17:44N 14°36' W 061°04'0 0.0
2018-Feb-10 17:14N 14°36' W 061°04'0 0.0
2018-Feb-10 16:50N 14°36' W 061°04'0 0.0
2018-Feb-10 16:17N 14°36' W 061°04'0 0.0
2018-Feb-10 15:14N 14°36' W 061°04'0 0.0
2018-Feb-10 14:56N 14°36' W 061°04'0 0.0
2018-Feb-10 14:29N 14°36' W 061°04'0 0.0
2018-Feb-10 13:59N 14°36' W 061°04'0 0.0
2018-Feb-10 13:20N 14°36' W 061°04'0 0.0
2018-Feb-10 12:05N 14°36' W 061°04'0 0.0
2018-Feb-10 11:53N 14°36' W 061°04'0 0.2
2018-Feb-10 11:28N 14°36' W 061°04'2 4.0
2018-Feb-10 11:00N 14°35' W 061°06'5 9.8
2018-Feb-10 10:28N 14°34' W 061°11'612.1
2018-Feb-10 09:59N 14°32' W 061°17'1514.9
2018-Feb-10 09:00N 14°24' W 061°30'4511.1 090 / 301015.427.0 24.0 27.0
2018-Feb-10 05:00N 14°06' W 062°12'3712.3 090 / 251016.0 5.4 25.0 26.9
2018-Feb-10 02:00N 13°54' W 062°48'3210.5 090 / 251016.910.8 26.0 27.0
2018-Feb-09 23:00N 13°42' W 063°18'2412.0 090 / 201015.210.8 26.0 27.0
2018-Feb-09 21:00N 13°36' W 063°42'11911.9 080 / 211014.110.8 27.0 27.0
2018-Feb-09 11:00N 12°54' W 065°36'6312.7 090 / 231014.810.8 26.0 27.0
2018-Feb-09 06:00N 12°30' W 066°36'   060 / 241013.9 5.4 25.0 26.0

Dump ship's entire track history